createdAt,value
2022-09-02T00:01:00.623Z,18.20
2022-09-02T00:03:48.113Z,18.45
2022-09-02T00:06:34.515Z,18.68
2022-09-02T00:09:23.780Z,18.87
2022-09-02T00:12:11.127Z,19.30
2022-09-02T00:14:57.373Z,18.81
2022-09-02T00:17:43.681Z,19.18
2022-09-02T00:20:31.008Z,19.03
2022-09-02T00:23:17.365Z,19.14
2022-09-02T00:26:04.254Z,18.84
2022-09-02T00:28:53.328Z,18.84
2022-09-02T00:31:45.549Z,18.79
2022-09-02T00:34:32.105Z,19.06
2022-09-02T00:37:18.454Z,18.88
2022-09-02T00:40:06.284Z,18.64
2022-09-02T00:42:52.942Z,19.20
2022-09-02T00:45:39.546Z,18.77
2022-09-02T00:48:27.350Z,18.72
2022-09-02T00:51:14.531Z,19.61
2022-09-02T00:54:01.844Z,19.08
2022-09-02T00:56:48.071Z,18.74
2022-09-02T00:59:47.159Z,19.09
2022-09-02T01:02:34.567Z,18.97
2022-09-02T01:05:23.446Z,18.18
2022-09-02T01:08:09.898Z,18.62
2022-09-02T01:10:56.881Z,17.86
2022-09-02T01:13:43.726Z,18.58
2022-09-02T01:16:38.500Z,18.93
2022-09-02T01:19:39.008Z,18.35
2022-09-02T01:22:30.664Z,19.01
2022-09-02T01:25:23.306Z,19.26
2022-09-02T01:28:12.743Z,18.29
2022-09-02T01:30:58.823Z,18.31
2022-09-02T01:33:45.437Z,18.61
2022-09-02T01:36:31.557Z,18.74
2022-09-02T01:39:19.815Z,19.28
2022-09-02T01:42:06.413Z,18.75
2022-09-02T01:44:53.137Z,19.08
2022-09-02T01:47:39.718Z,18.77
2022-09-02T01:50:26.296Z,18.98
2022-09-02T01:53:12.692Z,18.69
2022-09-02T01:55:59.077Z,19.37
2022-09-02T01:58:47.379Z,19.30
2022-09-02T02:01:35.499Z,18.76
2022-09-02T02:04:24.802Z,19.30
2022-09-02T02:07:14.433Z,17.98
2022-09-02T02:10:00.746Z,18.16
2022-09-02T02:12:47.371Z,18.96
2022-09-02T02:18:18.729Z,18.29
2022-09-02T02:21:05.410Z,18.10
2022-09-02T02:23:51.986Z,17.86
2022-09-02T02:26:38.238Z,18.47
2022-09-02T02:29:24.678Z,17.62
2022-09-02T02:32:11.627Z,18.37
2022-09-02T02:34:59.229Z,17.36
2022-09-02T02:37:49.224Z,18.45
2022-09-02T02:40:36.206Z,18.04
2022-09-02T02:43:25.094Z,18.24
2022-09-02T02:46:12.117Z,18.31
2022-09-02T02:49:01.957Z,18.24
2022-09-02T02:51:48.694Z,18.43
2022-09-02T02:54:35.382Z,18.70
2022-09-02T02:57:22.352Z,18.77
2022-09-02T03:00:20.952Z,17.32
2022-09-02T03:03:10.271Z,18.00
2022-09-02T03:05:56.605Z,18.21
2022-09-02T03:08:44.015Z,17.77
2022-09-02T03:11:30.798Z,18.51
2022-09-02T03:14:19.237Z,17.91
2022-09-02T03:17:06.928Z,18.60
2022-09-02T03:19:54.238Z,18.07
2022-09-02T03:22:40.930Z,18.63
2022-09-02T03:25:35.418Z,18.76
2022-09-02T03:28:22.662Z,18.51
2022-09-02T03:31:15.500Z,18.20
2022-09-02T03:34:02.143Z,18.33
2022-09-02T03:36:48.522Z,18.82
2022-09-02T03:39:36.758Z,17.86
2022-09-02T03:42:23.431Z,18.06
2022-09-02T03:45:11.134Z,18.67
2022-09-02T03:47:58.714Z,18.30
2022-09-02T03:50:47.442Z,18.75
2022-09-02T03:53:35.077Z,18.75
2022-09-02T03:56:22.581Z,18.56
2022-09-02T03:59:09.201Z,17.85
2022-09-02T04:01:55.719Z,18.49
2022-09-02T04:04:42.694Z,18.14
2022-09-02T04:07:28.969Z,18.30
2022-09-02T04:10:15.881Z,16.47
2022-09-02T04:13:02.176Z,17.69
2022-09-02T04:15:49.717Z,17.88
2022-09-02T04:18:36.510Z,18.16
2022-09-02T04:21:25.369Z,17.08
2022-09-02T04:24:11.922Z,17.46
2022-09-02T04:27:03.910Z,17.98
2022-09-02T04:29:51.575Z,17.38
2022-09-02T04:32:40.844Z,18.05
2022-09-02T04:35:27.944Z,17.31
2022-09-02T04:38:14.247Z,17.67
2022-09-02T04:41:01.347Z,17.63
2022-09-02T04:43:48.008Z,17.88
2022-09-02T04:46:34.979Z,18.07
2022-09-02T04:49:22.044Z,17.14
2022-09-02T04:52:10.577Z,16.11
2022-09-02T04:54:57.576Z,16.75
2022-09-02T04:57:43.809Z,17.19
2022-09-02T05:00:30.229Z,17.66
2022-09-02T05:03:17.110Z,17.61
2022-09-02T05:06:07.731Z,16.76
2022-09-02T05:08:59.628Z,18.11
2022-09-02T05:11:48.109Z,17.94
2022-09-02T05:14:34.585Z,17.25
2022-09-02T05:17:21.855Z,17.37
2022-09-02T05:20:09.612Z,17.97
2022-09-02T05:22:56.485Z,18.09
2022-09-02T05:25:43.013Z,18.06
2022-09-02T05:28:29.578Z,16.79
2022-09-02T05:31:17.857Z,17.22
2022-09-02T05:34:04.756Z,17.86
2022-09-02T05:36:51.221Z,18.20
2022-09-02T05:39:37.429Z,18.22
2022-09-02T05:42:24.505Z,17.60
2022-09-02T05:45:11.701Z,17.45
2022-09-02T05:48:22.684Z,17.15
2022-09-02T05:51:09.649Z,18.29
2022-09-02T05:53:57.722Z,17.86
2022-09-02T05:56:46.465Z,18.32
2022-09-02T05:59:39.089Z,17.41
2022-09-02T06:02:26.038Z,18.14
2022-09-02T06:05:12.825Z,18.08
2022-09-02T06:08:00.052Z,17.77
2022-09-02T06:10:46.528Z,18.20
2022-09-02T06:13:36.066Z,18.66
2022-09-02T06:16:23.863Z,18.23
2022-09-02T06:19:11.149Z,18.02
2022-09-02T06:21:59.963Z,18.10
2022-09-02T06:24:46.001Z,18.88
2022-09-02T06:27:33.598Z,18.48
2022-09-02T06:30:20.430Z,18.60
2022-09-02T06:33:06.869Z,18.76
2022-09-02T08:07:24.360Z,19.95
2022-09-02T08:10:13.004Z,20.25
2022-09-02T08:13:02.853Z,20.33
2022-09-02T08:15:50.885Z,20.71
2022-09-02T08:18:37.074Z,21.11
2022-09-02T08:21:24.679Z,20.86
2022-09-02T08:24:10.788Z,20.87
2022-09-02T08:26:57.375Z,20.83
2022-09-02T08:29:43.694Z,21.60
2022-09-02T08:32:32.959Z,21.92
2022-09-02T08:35:19.729Z,21.30
2022-09-02T08:38:06.071Z,20.49
2022-09-02T08:40:52.380Z,20.50
2022-09-02T08:43:43.658Z,20.99
2022-09-02T08:46:32.983Z,20.32
2022-09-02T08:49:46.717Z,20.03
2022-09-02T08:53:10.555Z,20.60
2022-09-02T08:55:59.066Z,20.82
2022-09-02T08:58:50.013Z,21.73
2022-09-02T09:01:42.279Z,21.91
2022-09-02T09:04:44.606Z,21.97
2022-09-02T09:07:46.012Z,22.44
2022-09-02T09:10:47.321Z,22.37
2022-09-02T09:14:11.145Z,22.46
2022-09-02T09:17:31.559Z,21.76
2022-09-02T09:20:20.556Z,22.26
2022-09-02T09:23:34.229Z,22.27
2022-09-02T09:26:27.643Z,22.34
2022-09-02T09:29:13.845Z,22.05
2022-09-02T09:32:01.323Z,21.93
2022-09-02T09:35:02.637Z,22.83
2022-09-02T09:37:54.133Z,22.05
2022-09-02T09:40:40.540Z,22.55
2022-09-02T09:43:30.113Z,23.02
2022-09-02T09:46:22.448Z,23.96
2022-09-02T09:49:08.993Z,24.48
2022-09-02T09:51:57.636Z,24.21
2022-09-02T09:54:44.393Z,23.44
2022-09-02T09:57:35.567Z,23.90
2022-09-02T10:00:32.361Z,24.49
2022-09-02T10:03:23.483Z,22.65
2022-09-02T10:06:37.018Z,22.52
2022-09-02T10:09:31.761Z,22.38
2022-09-02T10:12:32.636Z,22.20
2022-09-02T10:15:42.456Z,23.52
2022-09-02T10:18:46.145Z,23.12
2022-09-02T10:21:45.237Z,24.15
2022-09-02T10:25:11.024Z,21.83
2022-09-02T10:28:07.608Z,22.22
2022-09-02T10:31:16.837Z,23.03
2022-09-02T10:34:03.906Z,22.17
2022-09-02T10:37:11.936Z,21.35
2022-09-02T10:40:17.459Z,22.61
2022-09-02T10:43:08.445Z,23.35
2022-09-02T10:45:58.643Z,23.91
2022-09-02T10:49:03.532Z,23.94
2022-09-02T10:52:01.709Z,23.34
2022-09-02T10:54:53.530Z,23.31
2022-09-02T10:57:51.650Z,23.93
2022-09-02T11:00:41.080Z,23.99
2022-09-02T11:04:02.538Z,23.75
2022-09-02T11:07:02.533Z,23.46
2022-09-02T11:09:54.643Z,22.44
2022-09-02T11:12:42.202Z,23.07
2022-09-02T11:15:45.910Z,23.90
2022-09-02T11:18:44.851Z,23.68
2022-09-02T11:21:43.090Z,24.09
2022-09-02T11:24:43.273Z,24.25
2022-09-02T11:28:20.994Z,23.97
2022-09-02T11:31:19.398Z,23.99
2022-09-02T11:34:41.093Z,24.67
2022-09-02T11:37:34.758Z,24.90
2022-09-02T11:40:35.152Z,24.00
2022-09-02T11:43:45.544Z,26.10
2022-09-02T11:46:39.866Z,25.82
2022-09-02T11:49:34.206Z,25.23
2022-09-02T11:52:38.181Z,26.09
2022-09-02T11:55:34.450Z,26.42
2022-09-02T11:58:39.160Z,24.60
2022-09-02T12:01:43.865Z,26.12
2022-09-02T12:07:50.159Z,27.02
2022-09-02T12:10:46.876Z,27.16
2022-09-02T12:13:38.094Z,23.52
2022-09-02T12:16:30.791Z,24.81
2022-09-02T12:19:25.167Z,24.20
2022-09-02T12:22:17.972Z,25.81
2022-09-02T12:25:26.902Z,24.83
2022-09-02T12:28:27.963Z,24.72
2022-09-02T12:31:16.753Z,25.08
2022-09-02T12:34:22.988Z,25.25
2022-09-02T12:37:09.064Z,25.09
2022-09-02T12:39:58.540Z,24.94
2022-09-02T12:42:46.720Z,25.01
2022-09-02T12:45:41.283Z,24.80
2022-09-02T12:48:40.658Z,24.98
2022-09-02T12:51:53.338Z,24.60
2022-09-02T12:54:39.637Z,24.62
2022-09-02T12:57:39.552Z,24.59
2022-09-02T13:00:34.120Z,23.87
2022-09-02T13:03:32.928Z,23.85
2022-09-02T13:06:40.345Z,23.97
2022-09-02T13:09:47.994Z,23.95
2022-09-02T13:13:02.193Z,24.58
2022-09-02T13:16:07.473Z,24.78
2022-09-02T13:19:07.544Z,24.65
2022-09-02T13:22:32.396Z,24.92
2022-09-02T13:26:07.845Z,24.05
2022-09-02T13:29:06.503Z,25.27
2022-09-02T13:32:15.742Z,25.50
2022-09-02T13:35:05.825Z,24.44
2022-09-02T13:37:59.771Z,23.98
2022-09-02T13:40:46.511Z,24.95
2022-09-02T13:43:32.692Z,25.91
2022-09-02T13:46:18.987Z,25.48
2022-09-02T13:49:05.995Z,26.10
2022-09-02T13:51:54.620Z,25.53
2022-09-02T13:54:44.865Z,24.88
2022-09-02T13:57:31.841Z,25.91
2022-09-02T14:00:26.979Z,25.82
2022-09-02T14:03:17.824Z,26.22
2022-09-02T14:06:08.083Z,25.68
2022-09-02T14:08:59.747Z,25.94
2022-09-02T14:11:46.556Z,24.24
2022-09-02T14:14:33.602Z,23.75
2022-09-02T14:17:24.938Z,24.21
2022-09-02T14:20:19.207Z,23.50
2022-09-02T14:23:05.319Z,24.76
2022-09-02T14:25:55.410Z,23.42
2022-09-02T14:28:41.737Z,23.80
2022-09-02T14:31:30.972Z,24.02
2022-09-02T14:34:36.660Z,24.83
2022-09-02T14:37:24.127Z,24.91
2022-09-02T14:40:12.694Z,24.11
2022-09-02T14:42:59.765Z,24.59
2022-09-02T14:45:47.934Z,23.81
2022-09-02T14:48:38.959Z,24.16
2022-09-02T14:51:31.802Z,24.01
2022-09-02T14:54:41.167Z,23.39
2022-09-02T14:57:35.938Z,22.95
2022-09-02T15:00:22.990Z,23.43
2022-09-02T15:03:14.924Z,24.35
2022-09-02T15:06:01.143Z,24.11
2022-09-02T15:08:47.032Z,23.47
2022-09-02T15:11:33.289Z,23.73
2022-09-02T15:14:19.583Z,24.34
2022-09-02T15:17:09.616Z,24.28
2022-09-02T15:19:56.596Z,24.57
2022-09-02T15:22:43.396Z,24.63
2022-09-02T15:25:29.639Z,24.54
2022-09-02T15:28:16.017Z,24.41
2022-09-02T15:31:02.802Z,25.33
2022-09-02T15:33:51.720Z,24.54
2022-09-02T15:36:38.186Z,25.07
2022-09-02T15:39:26.023Z,25.04
2022-09-02T15:42:12.044Z,25.91
2022-09-02T15:44:58.690Z,25.84
2022-09-02T15:47:44.904Z,26.01
2022-09-02T15:50:33.974Z,25.78
2022-09-02T15:53:20.420Z,26.20
2022-09-02T15:56:19.870Z,25.89
2022-09-02T15:59:11.767Z,25.56
2022-09-02T16:02:02.362Z,25.53
2022-09-02T16:04:49.243Z,25.25
2022-09-02T16:07:35.718Z,24.63
2022-09-02T16:10:22.001Z,23.79
2022-09-02T16:13:08.418Z,23.78
2022-09-02T16:16:01.118Z,23.90
2022-09-02T16:18:52.510Z,24.29
2022-09-02T16:21:41.101Z,23.95
2022-09-02T16:24:27.326Z,23.10
2022-09-02T16:27:14.177Z,22.97
2022-09-02T16:30:00.527Z,23.17
2022-09-02T16:32:47.742Z,23.28
2022-09-02T16:35:33.955Z,23.08
2022-09-02T16:38:25.081Z,23.16
2022-09-02T16:41:23.398Z,22.72
2022-09-02T16:44:11.884Z,23.05
2022-09-02T16:46:58.104Z,22.52
2022-09-02T16:49:46.160Z,22.43
2022-09-02T16:52:34.935Z,22.72
2022-09-02T16:55:21.541Z,22.43
2022-09-02T16:58:07.461Z,22.74
2022-09-02T17:00:53.841Z,22.58
2022-09-02T17:03:40.693Z,22.61
2022-09-02T17:06:29.150Z,22.52
2022-09-02T17:09:16.392Z,22.44
2022-09-02T17:12:03.075Z,22.47
2022-09-02T17:14:49.029Z,22.08
2022-09-02T17:17:35.340Z,22.14
2022-09-02T17:20:22.639Z,22.03
2022-09-02T17:23:08.969Z,22.06
2022-09-02T17:25:55.279Z,22.12
2022-09-02T17:28:54.644Z,21.64
2022-09-02T17:31:40.725Z,21.49
2022-09-02T17:34:26.958Z,21.65
2022-09-02T17:37:13.326Z,21.67
2022-09-02T17:40:00.722Z,21.50
2022-09-02T17:42:46.784Z,21.21
2022-09-02T17:45:36.624Z,21.45
2022-09-02T17:48:37.222Z,21.49
2022-09-02T17:51:25.874Z,21.49
2022-09-02T17:54:12.695Z,21.53
2022-09-02T17:57:17.380Z,20.97
2022-09-02T18:00:22.374Z,21.30
2022-09-02T18:03:28.572Z,21.64
2022-09-02T18:06:25.059Z,21.09
2022-09-02T18:09:12.637Z,20.98
2022-09-02T18:12:01.080Z,21.31
2022-09-02T18:14:55.870Z,21.21
2022-09-02T18:17:48.507Z,20.76
2022-09-02T18:20:48.630Z,20.94
2022-09-02T18:23:53.431Z,20.95
2022-09-02T18:26:56.728Z,21.03
2022-09-02T18:29:53.230Z,20.93
2022-09-02T18:33:21.365Z,21.09
2022-09-02T18:36:19.319Z,21.25
2022-09-02T18:39:35.786Z,21.34
2022-09-02T18:42:38.810Z,20.93
2022-09-02T18:45:29.386Z,20.76
2022-09-02T18:48:37.426Z,21.01
2022-09-02T18:51:35.475Z,21.03
2022-09-02T18:54:27.435Z,21.05
2022-09-02T18:57:15.712Z,20.75
2022-09-02T19:00:09.091Z,21.02
2022-09-02T19:03:01.563Z,20.89
2022-09-02T19:05:49.748Z,20.81
2022-09-02T19:08:38.255Z,20.87
2022-09-02T19:11:27.293Z,20.54
2022-09-02T19:14:28.096Z,20.64
2022-09-02T19:17:14.891Z,20.70
2022-09-02T19:20:01.140Z,20.93
2022-09-02T19:22:51.018Z,20.64
2022-09-02T19:25:39.702Z,20.22
2022-09-02T19:28:26.581Z,20.75
2022-09-02T19:31:22.356Z,20.37
2022-09-02T19:34:11.449Z,20.47
2022-09-02T19:37:01.868Z,19.91
2022-09-02T19:39:51.283Z,20.18
2022-09-02T19:42:40.390Z,20.18
2022-09-02T19:45:29.305Z,20.20
2022-09-02T19:48:16.098Z,19.73
2022-09-02T19:51:03.217Z,19.69
2022-09-02T19:53:49.852Z,19.90
2022-09-02T19:56:36.852Z,19.71
2022-09-02T19:59:23.687Z,19.71
2022-09-02T20:02:10.198Z,19.68
2022-09-02T20:04:56.883Z,19.73
2022-09-02T20:07:42.742Z,19.88
2022-09-02T20:10:30.812Z,19.93
2022-09-02T20:13:17.934Z,19.46
2022-09-02T20:16:06.277Z,19.44
2022-09-02T20:18:53.603Z,19.77
2022-09-02T20:21:44.001Z,19.99
2022-09-02T20:24:33.974Z,20.14
2022-09-02T20:27:34.369Z,18.92
2022-09-02T20:30:21.183Z,19.42
2022-09-02T20:33:22.319Z,19.59
2022-09-02T20:36:39.470Z,19.58
2022-09-02T20:39:47.947Z,18.93
2022-09-02T20:43:00.741Z,19.36
2022-09-02T20:46:09.192Z,19.27
2022-09-02T20:49:01.460Z,19.39
2022-09-02T20:51:53.351Z,19.26
2022-09-02T20:54:48.600Z,19.08
2022-09-02T20:57:48.993Z,18.88
2022-09-02T21:00:35.299Z,18.79
2022-09-02T21:03:25.831Z,18.70
2022-09-02T21:06:12.270Z,17.81
2022-09-02T21:09:13.485Z,17.56
2022-09-02T21:12:12.941Z,18.05
2022-09-02T21:15:14.224Z,18.25
2022-09-02T21:18:15.960Z,18.43
2022-09-02T21:21:29.276Z,18.52
2022-09-02T21:24:24.696Z,18.14
2022-09-02T21:27:21.147Z,18.37
2022-09-02T21:30:22.913Z,16.62
2022-09-02T21:33:12.041Z,17.24
2022-09-02T21:35:59.149Z,16.98
2022-09-02T21:38:46.017Z,17.54
2022-09-02T21:41:42.981Z,17.16
2022-09-02T21:44:42.256Z,17.07
2022-09-02T21:47:35.352Z,15.88
2022-09-02T21:50:48.320Z,15.94
2022-09-02T21:53:53.612Z,16.89
2022-09-02T21:56:55.897Z,17.01
2022-09-02T21:59:49.379Z,16.97
2022-09-02T22:02:36.032Z,16.96
2022-09-02T22:06:10.062Z,17.36
2022-09-02T22:09:08.590Z,17.51
2022-09-02T22:12:11.143Z,17.57
2022-09-02T22:15:13.401Z,17.49
2022-09-02T22:18:14.018Z,17.31
2022-09-02T22:21:05.710Z,17.43
2022-09-02T22:23:54.525Z,16.81
2022-09-02T22:26:47.739Z,17.15
2022-09-02T22:29:40.118Z,17.28
2022-09-02T22:32:31.936Z,17.15
2022-09-02T22:35:31.466Z,15.83
2022-09-02T22:38:26.471Z,16.16
2022-09-02T22:41:29.284Z,14.87
2022-09-02T22:44:22.894Z,14.98
2022-09-02T22:47:27.792Z,15.59
2022-09-02T22:50:37.652Z,15.67
2022-09-02T22:53:24.128Z,14.57
2022-09-02T22:56:11.628Z,15.87
2022-09-02T22:59:24.272Z,16.06
2022-09-02T23:02:22.369Z,16.40
2022-09-02T23:05:37.808Z,16.48
2022-09-02T23:08:24.620Z,16.62
2022-09-02T23:11:16.558Z,16.73
2022-09-02T23:14:41.133Z,16.66
2022-09-02T23:17:34.843Z,16.69
2022-09-02T23:20:25.381Z,16.56
2022-09-02T23:23:26.985Z,16.25
2022-09-02T23:26:33.887Z,16.18
2022-09-02T23:29:28.737Z,14.24
2022-09-02T23:32:53.103Z,15.52
2022-09-02T23:35:59.883Z,15.85
2022-09-02T23:39:02.288Z,15.13
2022-09-02T23:41:48.905Z,14.70
2022-09-02T23:44:36.015Z,15.84
2022-09-02T23:47:37.770Z,15.91
2022-09-02T23:50:23.584Z,15.71
2022-09-02T23:53:13.968Z,15.90
2022-09-02T23:56:33.734Z,15.92
2022-09-02T23:59:26.236Z,16.30
